sensor_id;sensor_type;location;lat;lon;timestamp;pressure;altitude;pressure_sealevel;temperature;humidity
72721;BME280;60835;50.974;10.322;2023-05-09T00:01:10;98556.63;;;10.01;100.00
72721;BME280;60835;50.974;10.322;2023-05-09T00:03:37;98492.66;;;9.52;100.00
72721;BME280;60835;50.974;10.322;2023-05-09T00:06:05;98561.13;;;9.91;100.00
72721;BME280;60835;50.974;10.322;2023-05-09T00:08:32;98554.50;;;9.87;100.00
72721;BME280;60835;50.974;10.322;2023-05-09T00:11:00;98559.78;;;9.87;100.00
72721;BME280;60835;50.974;10.322;2023-05-09T00:13:27;98556.34;;;9.76;100.00
72721;BME280;60835;50.974;10.322;2023-05-09T00:15:53;98507.69;;;9.42;100.00
72721;BME280;60835;50.974;10.322;2023-05-09T00:18:20;98531.66;;;9.58;100.00
72721;BME280;60835;50.974;10.322;2023-05-09T00:20:48;98491.31;;;9.39;100.00
72721;BME280;60835;50.974;10.322;2023-05-09T00:23:15;98515.31;;;9.45;100.00
72721;BME280;60835;50.974;10.322;2023-05-09T00:25:42;98489.34;;;9.41;100.00
72721;BME280;60835;50.974;10.322;2023-05-09T00:28:08;98524.28;;;9.62;100.00
72721;BME280;60835;50.974;10.322;2023-05-09T00:30:35;98505.16;;;9.50;100.00
72721;BME280;60835;50.974;10.322;2023-05-09T00:33:02;98502.16;;;9.36;100.00
72721;BME280;60835;50.974;10.322;2023-05-09T00:35:28;98501.81;;;9.48;100.00
72721;BME280;60835;50.974;10.322;2023-05-09T00:37:57;98510.25;;;9.34;100.00
72721;BME280;60835;50.974;10.322;2023-05-09T00:40:24;98504.41;;;9.31;100.00
72721;BME280;60835;50.974;10.322;2023-05-09T00:42:51;98477.16;;;9.30;100.00
72721;BME280;60835;50.974;10.322;2023-05-09T00:45:18;98495.81;;;9.29;100.00
72721;BME280;60835;50.974;10.322;2023-05-09T00:47:45;98470.31;;;9.10;100.00
72721;BME280;60835;50.974;10.322;2023-05-09T00:50:11;98443.94;;;9.00;100.00
72721;BME280;60835;50.974;10.322;2023-05-09T00:52:39;98472.16;;;9.27;100.00
72721;BME280;60835;50.974;10.322;2023-05-09T00:55:07;98464.69;;;9.23;100.00
72721;BME280;60835;50.974;10.322;2023-05-09T00:57:35;98409.56;;;8.83;100.00
72721;BME280;60835;50.974;10.322;2023-05-09T01:00:02;98452.13;;;9.07;100.00
72721;BME280;60835;50.974;10.322;2023-05-09T01:02:32;98442.81;;;9.03;100.00
72721;BME280;60835;50.974;10.322;2023-05-09T01:04:58;98433.25;;;9.02;100.00
72721;BME280;60835;50.974;10.322;2023-05-09T01:08:02;98412.47;;;8.89;100.00
72721;BME280;60835;50.974;10.322;2023-05-09T01:13:25;98411.63;;;9.16;100.00
72721;BME280;60835;50.974;10.322;2023-05-09T01:19:01;98410.63;;;8.99;100.00
72721;BME280;60835;50.974;10.322;2023-05-09T01:21:34;98388.75;;;8.80;100.00
72721;BME280;60835;50.974;10.322;2023-05-09T01:27:47;98386.59;;;8.93;100.00
72721;BME280;60835;50.974;10.322;2023-05-09T01:30:11;98383.19;;;8.83;100.00
72721;BME280;60835;50.974;10.322;2023-05-09T01:32:41;98353.25;;;8.65;100.00
72721;BME280;60835;50.974;10.322;2023-05-09T01:35:11;98370.66;;;8.85;100.00
72721;BME280;60835;50.974;10.322;2023-05-09T01:37:41;98370.44;;;8.78;100.00
72721;BME280;60835;50.974;10.322;2023-05-09T01:40:16;98326.94;;;8.45;100.00
72721;BME280;60835;50.974;10.322;2023-05-09T01:42:49;98349.94;;;8.63;100.00
72721;BME280;60835;50.974;10.322;2023-05-09T01:45:17;98340.53;;;8.50;100.00
72721;BME280;60835;50.974;10.322;2023-05-09T01:47:44;98340.28;;;8.44;100.00
72721;BME280;60835;50.974;10.322;2023-05-09T01:50:16;98332.50;;;8.42;100.00
72721;BME280;60835;50.974;10.322;2023-05-09T01:52:46;98319.47;;;8.41;100.00
72721;BME280;60835;50.974;10.322;2023-05-09T01:55:14;98323.41;;;8.27;100.00
72721;BME280;60835;50.974;10.322;2023-05-09T01:57:43;98321.28;;;8.21;100.00
72721;BME280;60835;50.974;10.322;2023-05-09T02:00:11;98300.50;;;8.18;100.00
72721;BME280;60835;50.974;10.322;2023-05-09T02:02:40;98294.94;;;8.21;100.00
72721;BME280;60835;50.974;10.322;2023-05-09T02:05:11;98278.47;;;8.00;100.00
72721;BME280;60835;50.974;10.322;2023-05-09T02:07:40;98267.53;;;7.95;100.00
72721;BME280;60835;50.974;10.322;2023-05-09T02:10:09;98243.00;;;7.94;100.00
72721;BME280;60835;50.974;10.322;2023-05-09T02:12:36;98190.94;;;7.79;100.00
72721;BME280;60835;50.974;10.322;2023-05-09T02:15:04;98179.31;;;7.72;100.00
72721;BME280;60835;50.974;10.322;2023-05-09T02:17:32;98193.94;;;7.93;100.00
72721;BME280;60835;50.974;10.322;2023-05-09T02:19:58;98176.22;;;7.86;100.00
72721;BME280;60835;50.974;10.322;2023-05-09T02:22:25;98163.78;;;7.69;100.00
72721;BME280;60835;50.974;10.322;2023-05-09T02:24:52;98161.97;;;7.79;100.00
72721;BME280;60835;50.974;10.322;2023-05-09T02:27:19;98126.69;;;7.53;100.00
72721;BME280;60835;50.974;10.322;2023-05-09T02:29:50;98137.47;;;7.69;100.00
72721;BME280;60835;50.974;10.322;2023-05-09T02:32:24;98129.16;;;7.64;100.00
72721;BME280;60835;50.974;10.322;2023-05-09T02:34:53;98110.84;;;7.72;100.00
72721;BME280;60835;50.974;10.322;2023-05-09T02:37:20;98118.38;;;7.57;100.00
72721;BME280;60835;50.974;10.322;2023-05-09T02:39:47;98028.47;;;7.25;100.00
72721;BME280;60835;50.974;10.322;2023-05-09T02:42:21;98063.78;;;7.59;100.00
72721;BME280;60835;50.974;10.322;2023-05-09T02:44:53;98058.53;;;7.59;100.00
72721;BME280;60835;50.974;10.322;2023-05-09T02:47:23;98056.84;;;7.58;100.00
72721;BME280;60835;50.974;10.322;2023-05-09T02:49:51;98043.84;;;7.57;100.00
72721;BME280;60835;50.974;10.322;2023-05-09T02:52:17;98045.78;;;7.55;100.00
72721;BME280;60835;50.974;10.322;2023-05-09T02:54:44;98024.53;;;7.39;100.00
72721;BME280;60835;50.974;10.322;2023-05-09T02:57:11;97976.50;;;7.27;100.00
72721;BME280;60835;50.974;10.322;2023-05-09T02:59:37;98007.19;;;7.46;100.00
72721;BME280;60835;50.974;10.322;2023-05-09T03:02:04;97997.09;;;7.41;100.00
72721;BME280;60835;50.974;10.322;2023-05-09T03:04:30;97998.50;;;7.35;100.00
72721;BME280;60835;50.974;10.322;2023-05-09T03:06:57;97971.34;;;7.35;100.00
72721;BME280;60835;50.974;10.322;2023-05-09T03:09:24;97971.19;;;7.36;100.00
72721;BME280;60835;50.974;10.322;2023-05-09T03:11:50;97950.31;;;7.35;100.00
72721;BME280;60835;50.974;10.322;2023-05-09T03:14:17;97938.94;;;7.34;100.00
72721;BME280;60835;50.974;10.322;2023-05-09T03:16:44;97955.59;;;7.25;100.00
72721;BME280;60835;50.974;10.322;2023-05-09T03:19:10;97944.94;;;7.27;100.00
72721;BME280;60835;50.974;10.322;2023-05-09T03:21:37;97932.84;;;7.34;100.00
72721;BME280;60835;50.974;10.322;2023-05-09T03:24:06;97813.31;;;6.64;100.00
72721;BME280;60835;50.974;10.322;2023-05-09T03:26:33;97913.66;;;7.24;100.00
72721;BME280;60835;50.974;10.322;2023-05-09T03:29:03;97855.25;;;6.93;100.00
72721;BME280;60835;50.974;10.322;2023-05-09T03:31:29;97859.13;;;6.89;100.00
72721;BME280;60835;50.974;10.322;2023-05-09T03:33:56;97898.59;;;7.16;100.00
72721;BME280;60835;50.974;10.322;2023-05-09T03:36:23;97888.94;;;7.07;100.00
72721;BME280;60835;50.974;10.322;2023-05-09T03:38:50;97884.81;;;7.05;100.00
72721;BME280;60835;50.974;10.322;2023-05-09T03:41:16;97868.59;;;7.09;100.00
72721;BME280;60835;50.974;10.322;2023-05-09T03:43:44;97865.00;;;7.10;100.00
72721;BME280;60835;50.974;10.322;2023-05-09T03:46:11;97866.69;;;7.02;100.00
72721;BME280;60835;50.974;10.322;2023-05-09T03:48:37;97859.63;;;7.02;100.00
72721;BME280;60835;50.974;10.322;2023-05-09T03:51:04;97850.09;;;7.01;100.00
72721;BME280;60835;50.974;10.322;2023-05-09T03:53:31;97839.13;;;7.06;100.00
72721;BME280;60835;50.974;10.322;2023-05-09T03:55:58;97839.97;;;7.06;100.00
72721;BME280;60835;50.974;10.322;2023-05-09T03:58:24;97788.16;;;6.89;100.00
72721;BME280;60835;50.974;10.322;2023-05-09T04:00:51;97836.06;;;7.10;100.00
72721;BME280;60835;50.974;10.322;2023-05-09T04:03:19;97843.84;;;7.02;100.00
72721;BME280;60835;50.974;10.322;2023-05-09T04:05:46;97836.69;;;6.95;100.00
72721;BME280;60835;50.974;10.322;2023-05-09T04:08:12;97836.41;;;6.98;100.00
72721;BME280;60835;50.974;10.322;2023-05-09T04:10:39;97837.53;;;6.95;100.00
72721;BME280;60835;50.974;10.322;2023-05-09T04:13:06;97800.63;;;6.87;100.00
72721;BME280;60835;50.974;10.322;2023-05-09T04:15:33;97826.72;;;6.98;100.00
72721;BME280;60835;50.974;10.322;2023-05-09T04:17:59;97818.38;;;7.03;100.00
72721;BME280;60835;50.974;10.322;2023-05-09T04:20:26;97784.41;;;6.92;100.00
72721;BME280;60835;50.974;10.322;2023-05-09T04:22:53;97821.09;;;7.11;100.00
72721;BME280;60835;50.974;10.322;2023-05-09T04:25:19;97821.50;;;7.16;100.00
72721;BME280;60835;50.974;10.322;2023-05-09T04:27:46;97831.44;;;7.22;100.00
72721;BME280;60835;50.974;10.322;2023-05-09T04:30:13;97834.56;;;7.25;100.00
72721;BME280;60835;50.974;10.322;2023-05-09T04:32:40;97837.44;;;7.32;100.00
72721;BME280;60835;50.974;10.322;2023-05-09T04:35:12;97838.47;;;7.21;100.00
72721;BME280;60835;50.974;10.322;2023-05-09T04:37:39;97842.00;;;7.12;100.00
72721;BME280;60835;50.974;10.322;2023-05-09T04:40:07;97842.16;;;7.28;100.00
72721;BME280;60835;50.974;10.322;2023-05-09T04:42:34;97832.03;;;7.33;100.00
72721;BME280;60835;50.974;10.322;2023-05-09T04:45:01;97848.53;;;7.35;100.00
72721;BME280;60835;50.974;10.322;2023-05-09T04:47:28;97836.16;;;7.36;100.00
72721;BME280;60835;50.974;10.322;2023-05-09T04:49:54;97853.41;;;7.30;100.00
72721;BME280;60835;50.974;10.322;2023-05-09T04:52:21;97788.97;;;7.17;100.00
72721;BME280;60835;50.974;10.322;2023-05-09T04:54:48;97841.09;;;7.49;100.00
72721;BME280;60835;50.974;10.322;2023-05-09T04:57:14;97830.38;;;7.68;100.00
72721;BME280;60835;50.974;10.322;2023-05-09T04:59:44;97866.66;;;7.74;100.00
72721;BME280;60835;50.974;10.322;2023-05-09T05:02:11;97822.44;;;7.60;100.00
72721;BME280;60835;50.974;10.322;2023-05-09T05:04:38;97847.41;;;7.91;100.00
72721;BME280;60835;50.974;10.322;2023-05-09T05:07:05;97838.56;;;8.00;100.00
72721;BME280;60835;50.974;10.322;2023-05-09T05:09:31;97849.19;;;8.08;100.00
72721;BME280;60835;50.974;10.322;2023-05-09T05:11:58;97871.13;;;8.34;100.00
72721;BME280;60835;50.974;10.322;2023-05-09T05:14:29;97885.50;;;8.40;100.00
72721;BME280;60835;50.974;10.322;2023-05-09T05:16:55;97924.03;;;8.58;100.00
72721;BME280;60835;50.974;10.322;2023-05-09T05:19:22;97942.31;;;8.78;100.00
72721;BME280;60835;50.974;10.322;2023-05-09T05:21:48;97964.66;;;8.91;100.00
72721;BME280;60835;50.974;10.322;2023-05-09T05:24:15;97985.59;;;8.93;100.00
72721;BME280;60835;50.974;10.322;2023-05-09T05:26:41;97972.31;;;9.02;100.00
72721;BME280;60835;50.974;10.322;2023-05-09T05:29:08;98025.97;;;9.37;100.00
72721;BME280;60835;50.974;10.322;2023-05-09T05:31:35;98054.31;;;9.60;100.00
72721;BME280;60835;50.974;10.322;2023-05-09T05:34:01;98092.47;;;9.66;100.00
72721;BME280;60835;50.974;10.322;2023-05-09T05:36:28;98103.78;;;9.84;100.00
72721;BME280;60835;50.974;10.322;2023-05-09T05:38:55;98129.94;;;9.95;100.00
72721;BME280;60835;50.974;10.322;2023-05-09T05:41:21;98151.47;;;10.08;100.00
72721;BME280;60835;50.974;10.322;2023-05-09T05:43:48;98169.31;;;10.32;100.00
72721;BME280;60835;50.974;10.322;2023-05-09T05:46:18;98183.94;;;10.60;100.00
72721;BME280;60835;50.974;10.322;2023-05-09T05:48:45;98205.84;;;10.86;100.00
72721;BME280;60835;50.974;10.322;2023-05-09T05:51:12;98239.69;;;11.17;100.00
72721;BME280;60835;50.974;10.322;2023-05-09T05:53:38;98227.34;;;12.45;100.00
72721;BME280;60835;50.974;10.322;2023-05-09T05:56:05;98224.84;;;12.90;100.00
72721;BME280;60835;50.974;10.322;2023-05-09T05:58:32;98178.69;;;13.22;100.00
72721;BME280;60835;50.974;10.322;2023-05-09T06:01:00;98118.88;;;13.03;100.00
72721;BME280;60835;50.974;10.322;2023-05-09T06:03:27;98118.72;;;13.05;100.00
72721;BME280;60835;50.974;10.322;2023-05-09T06:05:54;98135.00;;;13.47;100.00
72721;BME280;60835;50.974;10.322;2023-05-09T06:08:22;98052.69;;;13.02;100.00
72721;BME280;60835;50.974;10.322;2023-05-09T06:10:48;98016.44;;;14.11;100.00
72721;BME280;60835;50.974;10.322;2023-05-09T06:13:15;97959.66;;;13.83;100.00
72721;BME280;60835;50.974;10.322;2023-05-09T06:15:41;97910.91;;;14.33;100.00
72721;BME280;60835;50.974;10.322;2023-05-09T06:18:08;97886.31;;;14.10;100.00
72721;BME280;60835;50.974;10.322;2023-05-09T06:20:35;97894.06;;;15.02;100.00
72721;BME280;60835;50.974;10.322;2023-05-09T06:23:01;97926.13;;;15.15;100.00
72721;BME280;60835;50.974;10.322;2023-05-09T06:25:28;97985.84;;;15.00;100.00
72721;BME280;60835;50.974;10.322;2023-05-09T06:27:54;98047.38;;;15.05;100.00
72721;BME280;60835;50.974;10.322;2023-05-09T06:30:21;98018.69;;;15.07;100.00
72721;BME280;60835;50.974;10.322;2023-05-09T06:32:53;98026.69;;;15.56;100.00
72721;BME280;60835;50.974;10.322;2023-05-09T06:35:20;98069.56;;;14.70;100.00
72721;BME280;60835;50.974;10.322;2023-05-09T06:37:47;98034.50;;;15.08;100.00
72721;BME280;60835;50.974;10.322;2023-05-09T06:40:15;98137.75;;;16.32;100.00
72721;BME280;60835;50.974;10.322;2023-05-09T06:42:42;98149.00;;;16.27;100.00
72721;BME280;60835;50.974;10.322;2023-05-09T06:45:10;98228.19;;;17.43;100.00
72721;BME280;60835;50.974;10.322;2023-05-09T06:47:36;98684.72;;;17.63;100.00
72721;BME280;60835;50.974;10.322;2023-05-09T06:50:03;99099.00;;;18.04;100.00
72721;BME280;60835;50.974;10.322;2023-05-09T06:52:30;99137.22;;;18.92;100.00
72721;BME280;60835;50.974;10.322;2023-05-09T06:54:57;99166.66;;;17.83;100.00
72721;BME280;60835;50.974;10.322;2023-05-09T06:57:23;99171.13;;;16.47;100.00
72721;BME280;60835;50.974;10.322;2023-05-09T06:59:50;99134.97;;;17.35;100.00
72721;BME280;60835;50.974;10.322;2023-05-09T07:02:17;99139.72;;;17.99;100.00
72721;BME280;60835;50.974;10.322;2023-05-09T07:04:44;99142.56;;;18.42;100.00
72721;BME280;60835;50.974;10.322;2023-05-09T07:07:10;99146.56;;;18.16;100.00
72721;BME280;60835;50.974;10.322;2023-05-09T07:09:37;99141.47;;;17.78;100.00
72721;BME280;60835;50.974;10.322;2023-05-09T07:12:04;99153.66;;;18.53;100.00
72721;BME280;60835;50.974;10.322;2023-05-09T07:14:30;99120.88;;;17.78;100.00
72721;BME280;60835;50.974;10.322;2023-05-09T07:16:57;99160.13;;;18.00;100.00
72721;BME280;60835;50.974;10.322;2023-05-09T07:19:43;99160.72;;;18.90;100.00
72721;BME280;60835;50.974;10.322;2023-05-09T07:22:10;99132.00;;;19.05;100.00
72721;BME280;60835;50.974;10.322;2023-05-09T07:24:38;99163.94;;;19.42;100.00
72721;BME280;60835;50.974;10.322;2023-05-09T07:27:05;99149.97;;;19.75;100.00
72721;BME280;60835;50.974;10.322;2023-05-09T07:29:37;99147.06;;;19.49;100.00
72721;BME280;60835;50.974;10.322;2023-05-09T07:32:04;99149.84;;;20.17;100.00
72721;BME280;60835;50.974;10.322;2023-05-09T07:34:31;99132.78;;;18.34;100.00
72721;BME280;60835;50.974;10.322;2023-05-09T07:36:58;99109.03;;;18.60;100.00
72721;BME280;60835;50.974;10.322;2023-05-09T07:39:25;99118.19;;;19.78;100.00
72721;BME280;60835;50.974;10.322;2023-05-09T07:41:52;99144.66;;;20.50;100.00
72721;BME280;60835;50.974;10.322;2023-05-09T07:44:18;99149.28;;;20.69;100.00
72721;BME280;60835;50.974;10.322;2023-05-09T07:46:45;99164.19;;;20.72;100.00
72721;BME280;60835;50.974;10.322;2023-05-09T07:49:12;99146.88;;;20.94;100.00
72721;BME280;60835;50.974;10.322;2023-05-09T07:51:38;99148.88;;;20.79;100.00
72721;BME280;60835;50.974;10.322;2023-05-09T07:54:05;99107.88;;;20.63;100.00
72721;BME280;60835;50.974;10.322;2023-05-09T07:56:32;99133.72;;;21.77;100.00
72721;BME280;60835;50.974;10.322;2023-05-09T07:58:58;99139.34;;;22.66;100.00
72721;BME280;60835;50.974;10.322;2023-05-09T08:01:25;99137.31;;;22.49;100.00
72721;BME280;60835;50.974;10.322;2023-05-09T08:03:51;99147.47;;;22.97;100.00
72721;BME280;60835;50.974;10.322;2023-05-09T08:06:19;99130.88;;;22.50;100.00
72721;BME280;60835;50.974;10.322;2023-05-09T08:08:45;99111.72;;;23.40;100.00
72721;BME280;60835;50.974;10.322;2023-05-09T08:11:14;99132.13;;;22.98;100.00
72721;BME280;60835;50.974;10.322;2023-05-09T08:13:41;99128.56;;;24.28;100.00
72721;BME280;60835;50.974;10.322;2023-05-09T08:16:08;99129.75;;;25.27;100.00
72721;BME280;60835;50.974;10.322;2023-05-09T08:18:34;99126.06;;;23.34;100.00
72721;BME280;60835;50.974;10.322;2023-05-09T08:21:01;99101.66;;;24.51;100.00
72721;BME280;60835;50.974;10.322;2023-05-09T08:23:28;99120.47;;;24.03;100.00
72721;BME280;60835;50.974;10.322;2023-05-09T08:25:55;99107.56;;;24.41;100.00
72721;BME280;60835;50.974;10.322;2023-05-09T08:28:22;99110.19;;;24.66;100.00
72721;BME280;60835;50.974;10.322;2023-05-09T08:30:50;99103.34;;;23.48;100.00
72721;BME280;60835;50.974;10.322;2023-05-09T08:33:17;99070.03;;;24.33;100.00
72721;BME280;60835;50.974;10.322;2023-05-09T08:35:44;99102.09;;;23.19;100.00
72721;BME280;60835;50.974;10.322;2023-05-09T08:38:11;99097.44;;;22.57;100.00
72721;BME280;60835;50.974;10.322;2023-05-09T08:40:39;99088.44;;;23.39;100.00
72721;BME280;60835;50.974;10.322;2023-05-09T08:43:07;99088.38;;;22.45;100.00
72721;BME280;60835;50.974;10.322;2023-05-09T08:45:49;99075.94;;;21.87;100.00
72721;BME280;60835;50.974;10.322;2023-05-09T08:48:17;99070.19;;;23.59;100.00
72721;BME280;60835;50.974;10.322;2023-05-09T08:50:53;98995.38;;;22.23;100.00
72721;BME280;60835;50.974;10.322;2023-05-09T08:53:21;99079.91;;;24.28;100.00
72721;BME280;60835;50.974;10.322;2023-05-09T08:55:51;99073.28;;;23.62;100.00
72721;BME280;60835;50.974;10.322;2023-05-09T08:58:19;99062.56;;;23.25;100.00
72721;BME280;60835;50.974;10.322;2023-05-09T09:00:48;99066.53;;;24.92;100.00
72721;BME280;60835;50.974;10.322;2023-05-09T09:03:16;99069.69;;;21.99;100.00
72721;BME280;60835;50.974;10.322;2023-05-09T09:05:43;99060.22;;;21.44;100.00
72721;BME280;60835;50.974;10.322;2023-05-09T09:08:11;99067.63;;;21.75;100.00
72721;BME280;60835;50.974;10.322;2023-05-09T09:10:40;99065.25;;;22.18;100.00
72721;BME280;60835;50.974;10.322;2023-05-09T09:13:09;99080.88;;;20.98;100.00
72721;BME280;60835;50.974;10.322;2023-05-09T09:15:39;99062.38;;;22.13;100.00
72721;BME280;60835;50.974;10.322;2023-05-09T09:18:08;99067.59;;;23.21;100.00
72721;BME280;60835;50.974;10.322;2023-05-09T09:20:55;99083.38;;;22.49;100.00
72721;BME280;60835;50.974;10.322;2023-05-09T09:23:24;99067.13;;;22.68;100.00
72721;BME280;60835;50.974;10.322;2023-05-09T09:25:59;99058.72;;;21.74;100.00
72721;BME280;60835;50.974;10.322;2023-05-09T09:28:26;99050.19;;;22.48;100.00
72721;BME280;60835;50.974;10.322;2023-05-09T09:30:54;99051.09;;;21.32;100.00
72721;BME280;60835;50.974;10.322;2023-05-09T09:33:22;99051.63;;;20.55;100.00
72721;BME280;60835;50.974;10.322;2023-05-09T09:35:53;99033.50;;;21.43;100.00
72721;BME280;60835;50.974;10.322;2023-05-09T09:38:22;99027.88;;;22.34;100.00
72721;BME280;60835;50.974;10.322;2023-05-09T09:40:55;99015.72;;;23.62;100.00
72721;BME280;60835;50.974;10.322;2023-05-09T09:43:29;99018.41;;;23.80;100.00
72721;BME280;60835;50.974;10.322;2023-05-09T09:45:59;99019.31;;;22.44;100.00
72721;BME280;60835;50.974;10.322;2023-05-09T09:48:30;99033.06;;;20.87;100.00
72721;BME280;60835;50.974;10.322;2023-05-09T09:51:09;99019.22;;;21.16;100.00
72721;BME280;60835;50.974;10.322;2023-05-09T09:53:40;99018.84;;;21.26;100.00
72721;BME280;60835;50.974;10.322;2023-05-09T09:56:08;99018.38;;;20.89;100.00
72721;BME280;60835;50.974;10.322;2023-05-09T09:58:35;98996.44;;;20.05;100.00
72721;BME280;60835;50.974;10.322;2023-05-09T10:01:09;99006.78;;;20.76;100.00
72721;BME280;60835;50.974;10.322;2023-05-09T10:03:40;99010.34;;;20.22;100.00
72721;BME280;60835;50.974;10.322;2023-05-09T10:06:14;99001.00;;;21.44;100.00
72721;BME280;60835;50.974;10.322;2023-05-09T10:08:44;98973.47;;;21.29;100.00
72721;BME280;60835;50.974;10.322;2023-05-09T10:11:14;98990.78;;;21.66;100.00
72721;BME280;60835;50.974;10.322;2023-05-09T10:13:41;98982.41;;;22.38;100.00
72721;BME280;60835;50.974;10.322;2023-05-09T10:16:10;98978.53;;;22.34;100.00
72721;BME280;60835;50.974;10.322;2023-05-09T10:18:38;98968.28;;;24.80;100.00
72721;BME280;60835;50.974;10.322;2023-05-09T10:21:10;98945.03;;;23.47;100.00
72721;BME280;60835;50.974;10.322;2023-05-09T10:23:44;98958.34;;;23.67;100.00
72721;BME280;60835;50.974;10.322;2023-05-09T10:26:17;98965.66;;;23.17;100.00
72721;BME280;60835;50.974;10.322;2023-05-09T10:28:50;98966.78;;;23.88;100.00
72721;BME280;60835;50.974;10.322;2023-05-09T10:31:26;98950.22;;;23.06;100.00
72721;BME280;60835;50.974;10.322;2023-05-09T10:33:54;98953.56;;;24.16;100.00
72721;BME280;60835;50.974;10.322;2023-05-09T10:36:21;98926.00;;;24.08;100.00
72721;BME280;60835;50.974;10.322;2023-05-09T10:38:54;98886.31;;;24.08;100.00
72721;BME280;60835;50.974;10.322;2023-05-09T10:41:21;98916.78;;;23.97;100.00
72721;BME280;60835;50.974;10.322;2023-05-09T10:43:49;98950.16;;;23.55;100.00
72721;BME280;60835;50.974;10.322;2023-05-09T10:46:15;98914.34;;;22.98;100.00
72721;BME280;60835;50.974;10.322;2023-05-09T10:48:43;98906.22;;;25.36;100.00
72721;BME280;60835;50.974;10.322;2023-05-09T10:51:11;98896.06;;;24.51;100.00
72721;BME280;60835;50.974;10.322;2023-05-09T10:53:41;98909.81;;;23.90;100.00
72721;BME280;60835;50.974;10.322;2023-05-09T10:58:52;98871.25;;;23.83;99.63
72721;BME280;60835;50.974;10.322;2023-05-09T11:03:57;98902.25;;;23.26;100.00
72721;BME280;60835;50.974;10.322;2023-05-09T11:14:51;98834.31;;;22.92;100.00
72721;BME280;60835;50.974;10.322;2023-05-09T11:22:27;98853.81;;;23.13;100.00
72721;BME280;60835;50.974;10.322;2023-05-09T11:25:02;98760.16;;;22.09;100.00
72721;BME280;60835;50.974;10.322;2023-05-09T11:27:44;98843.28;;;23.59;99.29
72721;BME280;60835;50.974;10.322;2023-05-09T11:30:15;98827.97;;;24.01;98.80
72721;BME280;60835;50.974;10.322;2023-05-09T11:35:19;98745.19;;;23.47;98.06
72721;BME280;60835;50.974;10.322;2023-05-09T11:40:15;98795.72;;;25.62;94.46
72721;BME280;60835;50.974;10.322;2023-05-09T11:42:49;98805.22;;;26.21;91.87
72721;BME280;60835;50.974;10.322;2023-05-09T11:45:25;98811.56;;;26.26;91.36
72721;BME280;60835;50.974;10.322;2023-05-09T11:47:56;98793.03;;;25.50;92.79
72721;BME280;60835;50.974;10.322;2023-05-09T11:50:24;98799.97;;;24.48;94.36
72721;BME280;60835;50.974;10.322;2023-05-09T11:52:52;98788.44;;;25.51;93.04
72721;BME280;60835;50.974;10.322;2023-05-09T11:55:20;98778.13;;;26.09;92.66
72721;BME280;60835;50.974;10.322;2023-05-09T11:57:58;98768.44;;;25.52;92.38
72721;BME280;60835;50.974;10.322;2023-05-09T12:00:24;98773.66;;;24.78;94.75
72721;BME280;60835;50.974;10.322;2023-05-09T12:02:52;98767.41;;;26.14;92.89
72721;BME280;60835;50.974;10.322;2023-05-09T12:05:20;98766.66;;;26.02;91.86
72721;BME280;60835;50.974;10.322;2023-05-09T12:07:48;98756.03;;;26.84;88.59
72721;BME280;60835;50.974;10.322;2023-05-09T12:10:18;98741.38;;;27.50;87.96
72721;BME280;60835;50.974;10.322;2023-05-09T12:12:50;98748.31;;;26.42;88.86
72721;BME280;60835;50.974;10.322;2023-05-09T12:15:18;98761.50;;;25.04;93.65
72721;BME280;60835;50.974;10.322;2023-05-09T12:17:46;98741.81;;;25.49;91.60
72721;BME280;60835;50.974;10.322;2023-05-09T12:20:17;98748.59;;;24.83;93.49
72721;BME280;60835;50.974;10.322;2023-05-09T12:22:43;98743.22;;;25.96;92.93
72721;BME280;60835;50.974;10.322;2023-05-09T12:25:10;98738.63;;;25.96;90.79
72721;BME280;60835;50.974;10.322;2023-05-09T12:27:39;98725.78;;;24.33;95.18
72721;BME280;60835;50.974;10.322;2023-05-09T12:30:07;98740.84;;;24.40;96.81
72721;BME280;60835;50.974;10.322;2023-05-09T12:32:37;98737.03;;;24.06;96.84
72721;BME280;60835;50.974;10.322;2023-05-09T12:35:07;98731.91;;;24.40;96.21
72721;BME280;60835;50.974;10.322;2023-05-09T12:37:34;98732.41;;;24.07;98.05
72721;BME280;60835;50.974;10.322;2023-05-09T12:40:05;98729.78;;;24.42;99.13
72721;BME280;60835;50.974;10.322;2023-05-09T12:42:33;98729.59;;;25.34;95.47
72721;BME280;60835;50.974;10.322;2023-05-09T12:45:01;98692.47;;;24.44;96.41
72721;BME280;60835;50.974;10.322;2023-05-09T12:47:29;98703.56;;;23.07;99.13
72721;BME280;60835;50.974;10.322;2023-05-09T12:49:57;98742.44;;;23.17;100.00
72721;BME280;60835;50.974;10.322;2023-05-09T12:52:33;98730.00;;;24.29;99.89
72721;BME280;60835;50.974;10.322;2023-05-09T12:55:10;98726.03;;;24.19;100.00
72721;BME280;60835;50.974;10.322;2023-05-09T12:57:39;98701.34;;;24.28;100.00
72721;BME280;60835;50.974;10.322;2023-05-09T13:00:08;98700.38;;;24.34;100.00
72721;BME280;60835;50.974;10.322;2023-05-09T13:02:36;98703.94;;;24.97;97.55
72721;BME280;60835;50.974;10.322;2023-05-09T13:05:17;98686.59;;;24.58;98.05
72721;BME280;60835;50.974;10.322;2023-05-09T13:07:45;98690.59;;;25.47;97.48
72721;BME280;60835;50.974;10.322;2023-05-09T13:10:17;98691.88;;;24.65;100.00
72721;BME280;60835;50.974;10.322;2023-05-09T13:12:46;98683.16;;;25.42;98.26
72721;BME280;60835;50.974;10.322;2023-05-09T13:15:15;98680.56;;;24.91;99.32
72721;BME280;60835;50.974;10.322;2023-05-09T13:17:42;98675.81;;;24.12;99.89
72721;BME280;60835;50.974;10.322;2023-05-09T13:20:09;98647.47;;;24.89;98.58
72721;BME280;60835;50.974;10.322;2023-05-09T13:22:36;98649.59;;;24.36;98.21
72721;BME280;60835;50.974;10.322;2023-05-09T13:25:03;98647.13;;;25.70;96.61